createdAt,value
2022-11-27T00:02:15.832Z,1.00
2022-11-27T00:04:42.563Z,1.20
2022-11-27T00:07:09.397Z,1.10
2022-11-27T00:09:36.394Z,1.10
2022-11-27T00:12:03.457Z,1.10
2022-11-27T00:14:30.213Z,1.10
2022-11-27T00:16:57.777Z,1.40
2022-11-27T00:19:24.444Z,1.30
2022-11-27T00:21:51.050Z,1.50
2022-11-27T00:24:17.680Z,1.20
2022-11-27T00:26:44.366Z,0.90
2022-11-27T00:29:11.337Z,0.90
2022-11-27T00:31:39.591Z,1.20
2022-11-27T00:34:08.576Z,1.70
2022-11-27T00:36:36.191Z,1.10
2022-11-27T00:39:03.584Z,2.40
2022-11-27T00:41:30.594Z,1.10
2022-11-27T00:43:58.824Z,0.80
2022-11-27T00:46:29.968Z,1.40
2022-11-27T00:48:57.576Z,2.30
2022-11-27T00:51:30.046Z,2.10
2022-11-27T00:53:57.317Z,1.20
2022-11-27T00:56:28.894Z,1.10
2022-11-27T00:58:57.711Z,0.90
2022-11-27T01:01:28.848Z,3.30
2022-11-27T01:03:56.943Z,1.60
2022-11-27T01:06:24.747Z,0.90
2022-11-27T01:08:51.389Z,2.10
2022-11-27T01:11:19.476Z,1.00
2022-11-27T01:13:46.687Z,0.80
2022-11-27T01:16:15.363Z,1.20
2022-11-27T01:18:42.895Z,2.80
2022-11-27T01:21:10.428Z,1.10
2022-11-27T01:23:37.155Z,1.20
2022-11-27T01:26:04.568Z,1.00
2022-11-27T01:28:31.306Z,1.70
2022-11-27T01:30:58.390Z,1.20
2022-11-27T01:33:25.338Z,1.00
2022-11-27T01:35:59.384Z,0.70
2022-11-27T01:38:26.264Z,1.70
2022-11-27T01:41:07.185Z,1.50
2022-11-27T01:43:39.991Z,1.60
2022-11-27T01:46:12.622Z,1.60
2022-11-27T01:48:39.343Z,1.40
2022-11-27T01:51:06.074Z,0.90
2022-11-27T01:53:34.329Z,1.30
2022-11-27T01:56:01.717Z,1.40
2022-11-27T01:58:35.950Z,1.20
2022-11-27T02:01:04.251Z,1.10
2022-11-27T02:03:42.483Z,1.40
2022-11-27T02:06:25.409Z,1.30
2022-11-27T02:08:52.468Z,1.40
2022-11-27T02:11:31.221Z,1.20
2022-11-27T02:14:11.290Z,1.50
2022-11-27T02:16:54.636Z,1.50
2022-11-27T02:19:27.458Z,1.70
2022-11-27T02:22:06.432Z,1.50
2022-11-27T02:24:51.932Z,1.40
2022-11-27T02:27:37.423Z,1.70
2022-11-27T02:30:05.487Z,1.50
2022-11-27T02:32:44.470Z,1.50
2022-11-27T02:35:11.159Z,1.60
2022-11-27T02:37:56.569Z,1.20
2022-11-27T02:40:41.529Z,1.70
2022-11-27T02:43:37.527Z,1.80
2022-11-27T02:46:05.446Z,1.60
2022-11-27T02:48:47.438Z,1.70
2022-11-27T02:51:15.079Z,1.80
2022-11-27T02:53:45.443Z,3.10
2022-11-27T02:56:15.279Z,1.20
2022-11-27T02:58:42.235Z,1.20
2022-11-27T03:01:09.990Z,0.80
2022-11-27T03:03:39.872Z,1.40
2022-11-27T03:06:09.218Z,1.50
2022-11-27T03:08:41.441Z,1.60
2022-11-27T03:11:09.601Z,1.80
2022-11-27T03:13:38.533Z,1.40
2022-11-27T03:16:05.313Z,1.60
2022-11-27T03:18:51.789Z,1.90
2022-11-27T03:21:27.775Z,1.70
2022-11-27T03:23:54.491Z,1.90
2022-11-27T03:26:21.255Z,1.40
2022-11-27T03:28:48.855Z,1.00
2022-11-27T03:31:15.843Z,1.20
2022-11-27T03:33:42.648Z,1.20
2022-11-27T03:36:17.052Z,3.60
2022-11-27T03:38:44.221Z,1.90
2022-11-27T03:41:33.855Z,1.40
2022-11-27T03:44:06.507Z,1.70
2022-11-27T03:46:59.558Z,1.80
2022-11-27T03:49:44.520Z,1.90
2022-11-27T03:52:20.161Z,1.80
2022-11-27T03:54:53.885Z,2.00
2022-11-27T03:57:26.115Z,1.30
2022-11-27T03:59:54.778Z,0.80
2022-11-27T04:02:28.851Z,1.50
2022-11-27T04:04:55.491Z,1.80
2022-11-27T04:07:22.249Z,1.60
2022-11-27T04:12:44.955Z,1.40
2022-11-27T04:18:39.567Z,2.20
2022-11-27T04:21:06.205Z,1.70
2022-11-27T04:23:32.920Z,1.30
2022-11-27T04:25:59.602Z,1.50
2022-11-27T04:28:26.225Z,1.20
2022-11-27T04:30:53.112Z,1.20
2022-11-27T04:33:19.938Z,1.50
2022-11-27T04:35:46.528Z,1.50
2022-11-27T04:38:13.197Z,1.40
2022-11-27T04:40:39.822Z,1.40
2022-11-27T04:43:06.455Z,1.80
2022-11-27T04:45:33.140Z,1.00
2022-11-27T04:47:59.872Z,1.40
2022-11-27T04:50:26.490Z,1.60
2022-11-27T04:52:53.057Z,1.60
2022-11-27T04:55:19.699Z,1.80
2022-11-27T04:57:46.356Z,1.70
2022-11-27T05:00:13.197Z,1.80
2022-11-27T05:02:40.268Z,2.00
2022-11-27T05:05:07.076Z,1.10
2022-11-27T05:07:33.772Z,1.80
2022-11-27T05:10:00.504Z,1.00
2022-11-27T05:12:27.124Z,1.20
2022-11-27T05:14:53.699Z,1.60
2022-11-27T05:17:20.406Z,1.40
2022-11-27T05:19:55.138Z,0.90
2022-11-27T05:22:21.790Z,1.70
2022-11-27T05:24:48.430Z,1.30
2022-11-27T05:27:15.392Z,1.10
2022-11-27T05:29:43.476Z,1.40
2022-11-27T05:32:10.226Z,1.50
2022-11-27T05:34:36.863Z,1.20
2022-11-27T05:37:03.579Z,1.60
2022-11-27T05:39:30.194Z,1.60
2022-11-27T05:41:56.920Z,1.30
2022-11-27T05:44:23.555Z,1.20
2022-11-27T05:46:50.284Z,1.30
2022-11-27T05:49:17.040Z,1.70
2022-11-27T05:51:50.490Z,1.70
2022-11-27T05:54:18.110Z,1.70
2022-11-27T05:56:44.713Z,1.20
2022-11-27T05:59:12.609Z,1.50
2022-11-27T06:01:39.442Z,1.40
2022-11-27T06:04:06.227Z,0.80
2022-11-27T06:06:32.806Z,1.60
2022-11-27T06:08:59.403Z,1.20
2022-11-27T06:11:26.055Z,1.10
2022-11-27T06:13:52.695Z,1.00
2022-11-27T06:16:23.658Z,1.10
2022-11-27T06:18:54.392Z,1.20
2022-11-27T06:21:21.949Z,1.20
2022-11-27T06:23:48.853Z,1.20
2022-11-27T06:26:17.217Z,1.10
2022-11-27T06:28:43.963Z,1.50
2022-11-27T06:31:17.566Z,1.30
2022-11-27T06:33:45.472Z,1.20
2022-11-27T06:36:12.157Z,1.10
2022-11-27T06:38:38.859Z,1.20
2022-11-27T06:41:09.567Z,1.00
2022-11-27T06:43:36.458Z,1.20
2022-11-27T06:46:04.022Z,0.80
2022-11-27T06:48:31.035Z,1.10
2022-11-27T06:51:01.451Z,0.50
2022-11-27T06:53:28.810Z,1.00
2022-11-27T06:55:55.611Z,0.30
2022-11-27T06:58:25.364Z,0.40
2022-11-27T07:00:59.905Z,0.20
2022-11-27T07:03:26.803Z,1.00
2022-11-27T07:05:53.500Z,0.40
2022-11-27T07:08:20.383Z,0.50
2022-11-27T07:10:47.037Z,0.10
2022-11-27T07:13:13.964Z,0.30
2022-11-27T07:15:40.600Z,-0.10
2022-11-27T07:18:07.266Z,0.30
2022-11-27T07:20:33.914Z,0.50
2022-11-27T07:23:00.655Z,0.40
2022-11-27T07:25:27.338Z,0.30
2022-11-27T07:27:55.116Z,0.30
2022-11-27T07:30:21.859Z,0.50
2022-11-27T07:32:48.507Z,0.60
2022-11-27T07:35:15.141Z,0.50
2022-11-27T07:37:41.798Z,0.50
2022-11-27T07:40:08.551Z,0.30
2022-11-27T07:42:39.157Z,0.60
2022-11-27T07:45:07.513Z,0.70
2022-11-27T07:47:34.174Z,0.60
2022-11-27T07:50:00.903Z,0.20
2022-11-27T07:52:27.641Z,0.30
2022-11-27T07:54:54.504Z,0.40
2022-11-27T07:57:21.157Z,0.50
2022-11-27T07:59:47.945Z,0.50
2022-11-27T08:02:15.052Z,0.90
2022-11-27T08:04:42.055Z,0.60
2022-11-27T08:07:08.900Z,0.40
2022-11-27T08:09:35.576Z,0.40
2022-11-27T08:12:02.230Z,0.80
2022-11-27T08:14:29.069Z,0.80
2022-11-27T08:16:55.839Z,0.20
2022-11-27T08:19:22.872Z,0.60
2022-11-27T08:21:49.678Z,0.30
2022-11-27T08:24:16.321Z,0.90
2022-11-27T08:26:43.142Z,0.90
2022-11-27T08:29:13.074Z,0.90
2022-11-27T08:31:40.090Z,1.20
2022-11-27T08:34:06.880Z,0.60
2022-11-27T08:36:33.554Z,1.00
2022-11-27T08:39:00.216Z,1.00
2022-11-27T08:41:26.904Z,1.10
2022-11-27T08:43:53.516Z,1.10
2022-11-27T08:46:20.217Z,1.10
2022-11-27T08:48:46.939Z,1.10
2022-11-27T08:51:14.540Z,1.10
2022-11-27T08:53:41.467Z,1.10
2022-11-27T08:56:15.574Z,1.10
2022-11-27T08:58:42.606Z,1.40
2022-11-27T09:01:28.207Z,0.90
2022-11-27T09:03:55.742Z,1.50
2022-11-27T09:06:23.626Z,1.30
2022-11-27T09:08:50.574Z,0.80
2022-11-27T09:11:19.109Z,1.40
2022-11-27T09:13:46.095Z,1.10
2022-11-27T09:16:14.251Z,1.00
2022-11-27T09:18:40.946Z,1.30
2022-11-27T09:21:09.747Z,1.30
2022-11-27T09:23:39.601Z,1.50
2022-11-27T09:26:08.092Z,0.90
2022-11-27T09:28:34.753Z,1.40
2022-11-27T09:31:02.175Z,1.20
2022-11-27T09:33:30.286Z,1.20
2022-11-27T09:35:57.019Z,1.50
2022-11-27T09:38:26.750Z,1.50
2022-11-27T09:41:00.414Z,0.70
2022-11-27T09:43:31.909Z,1.20
2022-11-27T09:46:01.516Z,1.30
2022-11-27T09:48:32.854Z,1.70
2022-11-27T09:51:00.595Z,1.40
2022-11-27T09:53:39.808Z,1.60
2022-11-27T09:56:09.773Z,2.20
2022-11-27T09:58:43.770Z,2.10
2022-11-27T10:01:12.471Z,2.30
2022-11-27T10:03:40.857Z,2.30
2022-11-27T10:06:28.040Z,1.30
2022-11-27T10:09:06.988Z,2.60
2022-11-27T10:11:46.229Z,2.20
2022-11-27T10:14:31.670Z,2.40
2022-11-27T10:17:27.885Z,2.20
2022-11-27T10:19:54.549Z,2.30
2022-11-27T10:22:21.542Z,1.70
2022-11-27T10:25:04.053Z,1.20
2022-11-27T10:27:38.652Z,2.40
2022-11-27T10:30:13.079Z,2.30
2022-11-27T10:32:55.088Z,2.80
2022-11-27T10:35:26.011Z,1.90
2022-11-27T10:38:07.366Z,3.40
2022-11-27T10:40:37.515Z,2.80
2022-11-27T10:43:15.714Z,2.30
2022-11-27T10:45:45.540Z,2.40
2022-11-27T10:48:12.996Z,2.50
2022-11-27T10:50:39.882Z,2.10
2022-11-27T10:53:08.295Z,2.30
2022-11-27T10:55:55.165Z,2.30
2022-11-27T10:58:36.896Z,2.20
2022-11-27T11:01:05.137Z,2.80
2022-11-27T11:03:31.830Z,2.50
2022-11-27T11:08:46.933Z,2.40
2022-11-27T11:11:13.935Z,2.40
2022-11-27T11:13:40.487Z,2.30
2022-11-27T11:16:09.827Z,2.50
2022-11-27T11:18:43.163Z,2.60
2022-11-27T11:21:15.940Z,2.80
2022-11-27T11:23:42.685Z,2.60
2022-11-27T11:26:12.312Z,2.20
2022-11-27T11:28:48.937Z,2.70
2022-11-27T11:31:18.316Z,2.80
2022-11-27T11:33:54.419Z,2.40
2022-11-27T11:36:21.182Z,3.00
2022-11-27T11:38:49.579Z,4.10
2022-11-27T11:41:18.757Z,2.60
2022-11-27T11:43:56.426Z,2.40
2022-11-27T11:46:24.834Z,2.70
2022-11-27T11:49:18.011Z,2.30
2022-11-27T11:52:03.542Z,2.80
2022-11-27T11:54:30.362Z,2.80
2022-11-27T11:56:59.659Z,2.40
2022-11-27T11:59:43.760Z,3.90
2022-11-27T12:02:26.364Z,2.90
2022-11-27T12:05:06.283Z,3.10
2022-11-27T12:07:55.020Z,3.10
2022-11-27T12:10:24.757Z,3.10
2022-11-27T12:13:00.590Z,2.80
2022-11-27T12:15:30.518Z,3.00
2022-11-27T12:18:23.494Z,3.30
2022-11-27T12:21:12.948Z,3.00
2022-11-27T12:23:39.573Z,2.90
2022-11-27T12:26:12.385Z,2.40
2022-11-27T12:28:57.531Z,3.10
2022-11-27T12:31:47.304Z,3.20
2022-11-27T12:34:17.083Z,3.30
2022-11-27T12:36:54.896Z,3.20
2022-11-27T12:39:40.389Z,2.90
2022-11-27T12:42:15.672Z,3.40
2022-11-27T12:44:45.581Z,3.30
2022-11-27T12:47:17.243Z,3.10
2022-11-27T12:49:45.924Z,3.00
2022-11-27T12:52:15.841Z,3.00
2022-11-27T12:54:45.051Z,3.00
2022-11-27T12:57:14.662Z,3.10
2022-11-27T13:00:05.262Z,2.30
2022-11-27T13:02:43.921Z,3.40
2022-11-27T13:05:13.549Z,3.40
2022-11-27T13:08:00.573Z,4.30
2022-11-27T13:10:31.148Z,4.90
2022-11-27T13:13:06.261Z,3.10
2022-11-27T13:15:35.967Z,3.60
2022-11-27T13:18:22.869Z,3.50
2022-11-27T13:20:52.799Z,2.80
2022-11-27T13:23:20.362Z,3.10
2022-11-27T13:25:49.383Z,3.10
2022-11-27T13:28:22.234Z,3.20
2022-11-27T13:30:50.164Z,3.50
2022-11-27T13:33:30.990Z,3.50
2022-11-27T13:35:57.719Z,3.30
2022-11-27T13:38:25.915Z,3.20
2022-11-27T13:40:54.995Z,3.40
2022-11-27T13:43:29.010Z,4.80
2022-11-27T13:46:05.877Z,3.60
2022-11-27T13:48:40.577Z,3.80
2022-11-27T13:51:08.304Z,3.50
2022-11-27T13:53:36.772Z,3.00
2022-11-27T13:56:04.195Z,3.10
2022-11-27T13:58:38.858Z,3.80
2022-11-27T14:01:13.848Z,3.80
2022-11-27T14:03:40.653Z,3.80
2022-11-27T14:06:16.396Z,3.40
2022-11-27T14:08:49.743Z,3.80
2022-11-27T14:11:16.408Z,3.50
2022-11-27T14:13:51.479Z,3.50
2022-11-27T14:16:31.829Z,3.60
2022-11-27T14:19:03.328Z,3.70
2022-11-27T14:21:29.950Z,4.80
2022-11-27T14:23:56.642Z,3.00
2022-11-27T14:26:24.741Z,2.90
2022-11-27T14:28:55.543Z,2.30
2022-11-27T14:31:25.652Z,3.90
2022-11-27T14:34:14.319Z,3.10
2022-11-27T14:36:39.436Z,3.30
2022-11-27T14:39:06.181Z,5.80
2022-11-27T14:41:32.852Z,3.00
2022-11-27T14:44:03.963Z,5.30
2022-11-27T14:46:31.650Z,2.90
2022-11-27T14:48:58.353Z,2.90
2022-11-27T14:51:26.208Z,2.80
2022-11-27T14:53:56.892Z,3.30
2022-11-27T14:56:23.924Z,2.80
2022-11-27T14:58:52.249Z,3.20
2022-11-27T15:01:24.120Z,3.00
2022-11-27T15:04:01.395Z,3.60
2022-11-27T15:06:31.225Z,3.70
2022-11-27T15:09:29.733Z,3.20
2022-11-27T15:11:56.227Z,3.40
2022-11-27T15:14:24.127Z,3.00
2022-11-27T15:16:51.371Z,3.40
2022-11-27T15:19:24.153Z,2.80
2022-11-27T15:21:50.886Z,5.90
2022-11-27T15:24:46.981Z,2.70
2022-11-27T15:27:20.715Z,3.70
2022-11-27T15:29:50.457Z,3.60
2022-11-27T15:32:24.800Z,3.60
2022-11-27T15:34:52.967Z,3.60
2022-11-27T15:37:30.816Z,3.30
2022-11-27T15:39:58.604Z,3.50
2022-11-27T15:42:27.461Z,3.10
2022-11-27T15:44:58.003Z,3.30
2022-11-27T15:47:33.789Z,3.60
2022-11-27T15:50:00.911Z,3.60
2022-11-27T15:52:27.599Z,3.30
2022-11-27T15:54:55.425Z,3.30
2022-11-27T15:57:22.121Z,3.30
2022-11-27T15:59:48.809Z,3.30
2022-11-27T16:02:18.157Z,3.00
2022-11-27T16:04:45.184Z,2.70
2022-11-27T16:07:11.910Z,2.80
2022-11-27T16:09:39.747Z,2.90
2022-11-27T16:12:06.689Z,3.30
2022-11-27T16:14:33.368Z,3.50
2022-11-27T16:17:01.422Z,2.90
2022-11-27T16:19:28.266Z,5.10
2022-11-27T16:21:54.944Z,3.30
2022-11-27T16:24:21.575Z,3.00
2022-11-27T16:26:48.273Z,5.50
2022-11-27T16:29:14.941Z,3.20
2022-11-27T16:31:41.784Z,3.40
2022-11-27T16:34:08.541Z,3.10
2022-11-27T16:36:35.271Z,3.20
2022-11-27T16:39:01.943Z,2.90
2022-11-27T16:41:28.639Z,2.70
2022-11-27T16:43:56.055Z,2.80
2022-11-27T16:46:26.395Z,3.00
2022-11-27T16:48:53.310Z,3.20
2022-11-27T16:51:21.743Z,3.30
2022-11-27T16:53:49.357Z,3.20
2022-11-27T16:56:17.485Z,3.20
2022-11-27T16:58:44.873Z,3.30
2022-11-27T17:01:12.746Z,3.40
2022-11-27T17:03:39.509Z,3.30
2022-11-27T17:06:13.583Z,2.90
2022-11-27T17:08:40.366Z,3.60
2022-11-27T17:11:09.571Z,3.20
2022-11-27T17:13:36.233Z,3.30
2022-11-27T17:16:03.418Z,3.60
2022-11-27T17:18:30.301Z,5.20
2022-11-27T17:21:00.871Z,3.60
2022-11-27T17:23:27.501Z,3.80
2022-11-27T17:25:54.170Z,2.70
2022-11-27T17:28:20.844Z,3.40
2022-11-27T17:30:47.515Z,3.40
2022-11-27T17:33:14.183Z,3.40
2022-11-27T17:35:41.701Z,3.10
2022-11-27T17:38:08.380Z,3.10
2022-11-27T17:40:35.021Z,2.90
2022-11-27T17:43:01.653Z,3.40
2022-11-27T17:45:28.366Z,3.40
2022-11-27T17:47:55.069Z,3.40
2022-11-27T17:50:21.710Z,3.10
2022-11-27T17:52:48.350Z,2.60
2022-11-27T17:55:15.016Z,3.20
2022-11-27T17:57:41.678Z,3.80
2022-11-27T18:00:08.702Z,3.40
2022-11-27T18:02:35.396Z,3.90
2022-11-27T18:05:02.116Z,3.40
2022-11-27T18:07:29.086Z,3.40
2022-11-27T18:09:57.145Z,3.30
2022-11-27T18:12:23.874Z,3.40
2022-11-27T18:14:54.340Z,3.10
2022-11-27T18:17:24.787Z,3.40
2022-11-27T18:19:51.611Z,3.70
2022-11-27T18:22:19.343Z,3.00
2022-11-27T18:24:46.117Z,3.40
2022-11-27T18:27:15.262Z,3.40
2022-11-27T18:29:44.664Z,2.70
2022-11-27T18:32:12.263Z,4.10
2022-11-27T18:34:39.507Z,3.40
2022-11-27T18:37:06.758Z,3.30
2022-11-27T18:39:34.236Z,3.10
2022-11-27T18:42:01.000Z,3.00
2022-11-27T18:44:27.667Z,2.80
2022-11-27T18:46:54.497Z,2.80
2022-11-27T18:49:22.878Z,2.70
2022-11-27T18:51:49.973Z,5.40
2022-11-27T18:54:16.641Z,3.10
2022-11-27T18:56:43.485Z,2.60
2022-11-27T18:59:10.132Z,2.90
2022-11-27T19:01:42.064Z,4.90
2022-11-27T19:04:09.555Z,2.90
2022-11-27T19:06:37.046Z,2.30
2022-11-27T19:09:03.838Z,2.70
2022-11-27T19:11:31.079Z,2.60
2022-11-27T19:13:57.888Z,2.00
2022-11-27T19:16:29.452Z,2.50
2022-11-27T19:18:56.792Z,3.30
2022-11-27T19:21:24.977Z,2.90
2022-11-27T19:23:51.876Z,2.90
2022-11-27T19:26:19.710Z,2.50
2022-11-27T19:28:53.998Z,2.80
2022-11-27T19:31:21.051Z,3.10
2022-11-27T19:34:00.831Z,2.70
2022-11-27T19:36:28.913Z,3.20
2022-11-27T19:38:56.563Z,3.10
2022-11-27T19:41:23.319Z,2.60
2022-11-27T19:43:50.161Z,3.00
2022-11-27T19:46:17.837Z,2.90
2022-11-27T19:48:44.676Z,3.00
2022-11-27T19:51:11.869Z,2.50
2022-11-27T19:53:39.089Z,2.90
2022-11-27T19:56:06.434Z,2.90
2022-11-27T19:58:33.204Z,3.20
2022-11-27T20:01:06.945Z,3.00
2022-11-27T20:03:33.675Z,3.40
2022-11-27T20:06:11.239Z,2.50
2022-11-27T20:08:38.447Z,3.90
2022-11-27T20:11:05.940Z,2.40
2022-11-27T20:13:32.740Z,3.30
2022-11-27T20:15:59.415Z,5.10
2022-11-27T20:18:27.981Z,3.00
2022-11-27T20:21:27.197Z,2.80
2022-11-27T20:23:54.314Z,3.20
2022-11-27T20:26:22.679Z,2.80
2022-11-27T20:28:50.219Z,2.60
2022-11-27T20:31:18.947Z,2.90
2022-11-27T20:33:48.648Z,3.60
2022-11-27T20:36:17.536Z,3.20
2022-11-27T20:38:44.265Z,2.90
2022-11-27T20:41:12.575Z,2.90
2022-11-27T20:43:39.552Z,2.80
2022-11-27T20:46:07.811Z,2.40
2022-11-27T20:48:35.107Z,2.90
2022-11-27T20:51:09.231Z,2.60
2022-11-27T20:53:35.995Z,3.30
2022-11-27T20:56:06.730Z,2.80
2022-11-27T20:58:37.078Z,2.80
2022-11-27T21:01:13.160Z,3.10
2022-11-27T21:03:39.903Z,2.90
2022-11-27T21:06:06.582Z,2.80
2022-11-27T21:08:33.282Z,3.50
2022-11-27T21:11:07.370Z,2.60
2022-11-27T21:13:34.001Z,2.80
2022-11-27T21:16:00.652Z,2.70
2022-11-27T21:18:27.269Z,2.80
2022-11-27T21:20:53.959Z,2.90
2022-11-27T21:23:21.674Z,2.50
2022-11-27T21:25:48.320Z,3.00
2022-11-27T21:28:14.993Z,2.80
2022-11-27T21:30:41.684Z,2.90
2022-11-27T21:33:08.339Z,2.30
2022-11-27T21:35:40.088Z,2.80
2022-11-27T21:38:08.132Z,2.70
2022-11-27T21:40:36.792Z,2.40
2022-11-27T21:43:03.469Z,2.40
2022-11-27T21:45:30.159Z,1.90
2022-11-27T21:47:56.875Z,2.30
2022-11-27T21:50:23.553Z,3.00
2022-11-27T21:52:52.090Z,2.30
2022-11-27T21:55:18.747Z,2.70
2022-11-27T21:57:45.369Z,3.00
2022-11-27T22:00:12.147Z,2.70
2022-11-27T22:02:38.956Z,3.10
2022-11-27T22:05:05.971Z,3.00
2022-11-27T22:07:34.456Z,3.10
2022-11-27T22:10:01.174Z,2.80
2022-11-27T22:12:27.827Z,2.50
2022-11-27T22:14:54.458Z,2.80
2022-11-27T22:17:23.807Z,2.70
2022-11-27T22:19:50.480Z,2.70
2022-11-27T22:22:17.123Z,2.50
2022-11-27T22:24:44.074Z,3.10
2022-11-27T22:27:11.009Z,2.80
2022-11-27T22:29:37.704Z,2.90
2022-11-27T22:32:04.375Z,2.80
2022-11-27T22:34:31.024Z,5.20
2022-11-27T22:36:57.685Z,3.20
2022-11-27T22:39:24.378Z,2.60
2022-11-27T22:41:51.037Z,2.60
2022-11-27T22:44:18.690Z,2.60
2022-11-27T22:46:45.344Z,2.50
2022-11-27T22:49:13.760Z,2.40
2022-11-27T22:51:40.641Z,2.70
2022-11-27T22:54:10.336Z,2.80
2022-11-27T22:56:37.156Z,2.30
2022-11-27T22:59:31.623Z,3.00
2022-11-27T23:01:51.506Z,2.80
2022-11-27T23:04:18.188Z,2.70
2022-11-27T23:06:48.526Z,2.70
2022-11-27T23:09:16.165Z,2.50
2022-11-27T23:11:42.832Z,2.60
2022-11-27T23:14:09.535Z,2.60
2022-11-27T23:16:36.454Z,2.60
2022-11-27T23:19:03.234Z,2.20
2022-11-27T23:21:30.595Z,2.50
2022-11-27T23:23:57.263Z,2.30
2022-11-27T23:26:24.324Z,2.50
2022-11-27T23:28:52.298Z,2.70
2022-11-27T23:31:29.931Z,2.30
2022-11-27T23:33:58.700Z,2.20
2022-11-27T23:36:25.423Z,4.60
2022-11-27T23:38:52.128Z,2.30
2022-11-27T23:41:20.893Z,2.90
2022-11-27T23:43:47.761Z,2.40
2022-11-27T23:46:15.544Z,3.00
2022-11-27T23:48:43.111Z,2.80
2022-11-27T23:51:13.307Z,2.80
2022-11-27T23:53:39.964Z,2.70
2022-11-27T23:56:14.247Z,4.60
2022-11-27T23:58:46.658Z,3.10
